Aviation Digital Data Service (ADDS)

Output produced by METARs form (1623 UTC 25 April 2018)
found at http://aviationweather.gov/adds/metars/
 
METAR text: KSBP 251556Z 00000KT 9SM OVC005 11/09 A3009 RMK AO2 SLP190 T01110089
Conditions at: KSBP (SAN LUIS OBISPO , CA, US) observed 1556 UTC 25 April 2018
Temperature: 11.1°C (52°F)
Dewpoint: 8.9°C (48°F) [RH = 86%]
Pressure (altimeter): 30.09 inches Hg (1019.0 mb)
[Sea-level pressure: 1019.0 mb]
Winds: calm
Visibility: 9 miles (14 km)
Ceiling: 500 feet AGL
Clouds: overcast cloud deck at 500 feet AGL
Weather: no significant weather observed at this time

METAR text: KSBP 251541Z 13003KT 9SM OVC005 11/09 A3009 RMK AO2 T01060089
Conditions at: KSBP (SAN LUIS OBISPO , CA, US) observed 1541 UTC 25 April 2018
Temperature: 10.6°C (51°F)
Dewpoint: 8.9°C (48°F) [RH = 89%]
Pressure (altimeter): 30.09 inches Hg (1019.0 mb)
Winds: from the SE (130 degrees) at 3 MPH (3 knots; 1.6 m/s)
Visibility: 9 miles (14 km)
Ceiling: 500 feet AGL
Clouds: overcast cloud deck at 500 feet AGL
Weather: no significant weather observed at this time

METAR text: KSBP 251456Z 26004KT 3SM BR OVC003 10/09 A3008 RMK AO2 SLP185 T01000089 53009
Conditions at: KSBP (SAN LUIS OBISPO , CA, US) observed 1456 UTC 25 April 2018
Temperature: 10.0°C (50°F)
Dewpoint: 8.9°C (48°F) [RH = 93%]
Pressure (altimeter): 30.08 inches Hg (1018.7 mb)
[Sea-level pressure: 1018.5 mb]
Winds: from the W (260 degrees) at 5 MPH (4 knots; 2.1 m/s)
Visibility: 3 miles (5 km)
Ceiling: 300 feet AGL
Clouds: overcast cloud deck at 300 feet AGL
Weather: BR  (mist)

METAR text: KSBP 251356Z 00000KT 3SM BR OVC003 10/09 A3006 RMK AO2 SLP178 T01000094
Conditions at: KSBP (SAN LUIS OBISPO , CA, US) observed 1356 UTC 25 April 2018
Temperature: 10.0°C (50°F)
Dewpoint: 9.4°C (49°F) [RH = 96%]
Pressure (altimeter): 30.06 inches Hg (1018.0 mb)
[Sea-level pressure: 1017.8 mb]
Winds: calm
Visibility: 3 miles (5 km)
Ceiling: 300 feet AGL
Clouds: overcast cloud deck at 300 feet AGL
Weather: BR  (mist)

METAR text: KSBP 251256Z 32003KT 4SM BR OVC003 10/09 A3005 RMK AO2 SLP175 T01000094
Conditions at: KSBP (SAN LUIS OBISPO , CA, US) observed 1256 UTC 25 April 2018
Temperature: 10.0°C (50°F)
Dewpoint: 9.4°C (49°F) [RH = 96%]
Pressure (altimeter): 30.05 inches Hg (1017.7 mb)
[Sea-level pressure: 1017.5 mb]
Winds: from the NW (320 degrees) at 3 MPH (3 knots; 1.6 m/s)
Visibility: 4 miles (6 km)
Ceiling: 300 feet AGL
Clouds: overcast cloud deck at 300 feet AGL
Weather: BR  (mist)

METAR text: KSBP 251156Z 00000KT 5SM BR OVC003 10/09 A3005 RMK AO2 SLP174 T01000094 10111 20100 55001
Conditions at: KSBP (SAN LUIS OBISPO , CA, US) observed 1156 UTC 25 April 2018
Temperature: 10.0°C (50°F)
Dewpoint: 9.4°C (49°F) [RH = 96%]
Pressure (altimeter): 30.05 inches Hg (1017.7 mb)
[Sea-level pressure: 1017.4 mb]
Winds: calm
Visibility: 5 miles (8 km)
Ceiling: 300 feet AGL
Clouds: overcast cloud deck at 300 feet AGL
Weather: BR  (mist)

METAR text: KSBP 251056Z 28004KT 6SM BR OVC004 11/09 A3005 RMK AO2 SLP174 T01060094
Conditions at: KSBP (SAN LUIS OBISPO , CA, US) observed 1056 UTC 25 April 2018
Temperature: 10.6°C (51°F)
Dewpoint: 9.4°C (49°F) [RH = 92%]
Pressure (altimeter): 30.05 inches Hg (1017.7 mb)
[Sea-level pressure: 1017.4 mb]
Winds: from the W (280 degrees) at 5 MPH (4 knots; 2.1 m/s)
Visibility: 6 miles (10 km)
Ceiling: 400 feet AGL
Clouds: overcast cloud deck at 400 feet AGL
Weather: BR  (mist)

METAR text: KSBP 250956Z 33004KT 7SM OVC004 11/09 A3005 RMK AO2 SLP175 T01060094
Conditions at: KSBP (SAN LUIS OBISPO , CA, US) observed 0956 UTC 25 April 2018
Temperature: 10.6°C (51°F)
Dewpoint: 9.4°C (49°F) [RH = 92%]
Pressure (altimeter): 30.05 inches Hg (1017.7 mb)
[Sea-level pressure: 1017.5 mb]
Winds: from the NNW (330 degrees) at 5 MPH (4 knots; 2.1 m/s)
Visibility: 7 miles (11 km)
Ceiling: 400 feet AGL
Clouds: overcast cloud deck at 400 feet AGL
Weather: no significant weather observed at this time

METAR text: KSBP 250935Z 24003KT 7SM OVC004 11/09 A3005 RMK AO2 T01060094
Conditions at: KSBP (SAN LUIS OBISPO , CA, US) observed 0935 UTC 25 April 2018
Temperature: 10.6°C (51°F)
Dewpoint: 9.4°C (49°F) [RH = 92%]
Pressure (altimeter): 30.05 inches Hg (1017.7 mb)
Winds: from the WSW (240 degrees) at 3 MPH (3 knots; 1.6 m/s)
Visibility: 7 miles (11 km)
Ceiling: 400 feet AGL
Clouds: overcast cloud deck at 400 feet AGL
Weather: no significant weather observed at this time

METAR text: KSBP 250856Z 25003KT 10SM OVC005 11/09 A3005 RMK AO2 SLP176 T01110089 53007
Conditions at: KSBP (SAN LUIS OBISPO , CA, US) observed 0856 UTC 25 April 2018
Temperature: 11.1°C (52°F)
Dewpoint: 8.9°C (48°F) [RH = 86%]
Pressure (altimeter): 30.05 inches Hg (1017.7 mb)
[Sea-level pressure: 1017.6 mb]
Winds: from the WSW (250 degrees) at 3 MPH (3 knots; 1.6 m/s)
Visibility: 10 or more miles (16+ km)
Ceiling: 500 feet AGL
Clouds: overcast cloud deck at 500 feet AGL
Weather: no significant weather observed at this time